Time;durP1;ratioP1;P1;durP2;ratioP2;P2;SDS_P1;SDS_P2;PMS_P1;PMS_P2;Temp;Humidity;BMP_temperature;BMP_pressure;BME280_temperature;BME280_humidity;BME280_pressure;Samples;Min_cycle;Max_cycle;Signal;HPM_P1;HPM_P2
2022/12/13 00:02:11;;;;;;;28.53;14.63;;;;;;;;;;5055030;28;20676;-80
2022/12/13 00:04:38;;;;;;;25.60;15.27;;;;;;;;;;5055061;28;20213;-80
2022/12/13 00:07:05;;;;;;;27.33;15.17;;;;;;;;;;5054537;28;20238;-80
2022/12/13 00:09:34;;;;;;;27.97;15.23;;;;;;;;;;5054483;28;20210;-81
2022/12/13 00:12:01;;;;;;;26.87;15.27;;;;;;;;;;5065464;28;20256;-80
2022/12/13 00:14:28;;;;;;;23.57;14.73;;;;;;;;;;5075639;28;20210;-81
2022/12/13 00:16:55;;;;;;;29.40;17.87;;;;;;;;;;5074558;28;20241;-80
2022/12/13 00:19:23;;;;;;;24.40;15.07;;;;;;;;;;5074857;28;20565;-81
2022/12/13 00:21:50;;;;;;;27.20;15.77;;;;;;;;;;5073178;28;20720;-80
2022/12/13 00:24:17;;;;;;;28.47;15.33;;;;;;;;;;5075024;28;20232;-81
2022/12/13 00:26:46;;;;;;;27.97;15.80;;;;;;;;;;5073940;28;20248;-81
2022/12/13 00:29:13;;;;;;;32.07;16.73;;;;;;;;;;5074384;28;20209;-81
2022/12/13 00:31:40;;;;;;;26.43;15.53;;;;;;;;;;5073097;28;20233;-82
2022/12/13 00:34:07;;;;;;;31.37;16.60;;;;;;;;;;5074972;28;20202;-80
2022/12/13 00:36:34;;;;;;;27.47;15.27;;;;;;;;;;5076241;28;20240;-80
2022/12/13 00:39:01;;;;;;;27.60;15.47;;;;;;;;;;5073922;28;20205;-80
2022/12/13 00:41:29;;;;;;;24.40;15.63;;;;;;;;;;5059694;28;20623;-80
2022/12/13 00:43:58;;;;;;;28.80;14.80;;;;;;;;;;5054054;28;20226;-81
2022/12/13 00:46:25;;;;;;;32.90;15.50;;;;;;;;;;5053355;28;20240;-82
2022/12/13 00:48:53;;;;;;;21.90;14.47;;;;;;;;;;5053889;28;20206;-80
2022/12/13 00:51:21;;;;;;;23.97;13.77;;;;;;;;;;5054386;28;20238;-80
2022/12/13 00:53:48;;;;;;;30.67;17.47;;;;;;;;;;5053174;28;20593;-80
2022/12/13 00:56:16;;;;;;;26.67;15.97;;;;;;;;;;5055697;28;20720;-79
2022/12/13 00:58:43;;;;;;;29.00;14.37;;;;;;;;;;5053442;28;20220;-80
2022/12/13 01:01:14;;;;;;;27.10;15.00;;;;;;;;;;5053163;28;20705;-80
2022/12/13 01:03:41;;;;;;;25.23;13.47;;;;;;;;;;5054637;28;20209;-80
2022/12/13 01:06:09;;;;;;;29.20;13.27;;;;;;;;;;5052783;28;20598;-80
2022/12/13 01:08:37;;;;;;;29.83;15.67;;;;;;;;;;5053067;28;20229;-80
2022/12/13 01:11:04;;;;;;;25.87;15.07;;;;;;;;;;5052494;28;20245;-80
2022/12/13 01:13:31;;;;;;;25.97;13.80;;;;;;;;;;5068317;28;20225;-80
2022/12/13 01:15:58;;;;;;;24.70;14.03;;;;;;;;;;5055717;28;20234;-80
2022/12/13 01:18:27;;;;;;;26.63;13.97;;;;;;;;;;5054294;28;20229;-79
2022/12/13 01:21:01;;;;;;;23.63;13.43;;;;;;;;;;5063352;28;20233;-80
2022/12/13 01:23:28;;;;;;;24.23;14.03;;;;;;;;;;5053108;28;20289;-80
2022/12/13 01:25:55;;;;;;;28.93;14.87;;;;;;;;;;5052339;28;20238;-79
2022/12/13 01:28:23;;;;;;;23.43;13.73;;;;;;;;;;5052555;28;20222;-79
2022/12/13 01:30:57;;;;;;;25.93;13.63;;;;;;;;;;5052270;28;20241;-79
2022/12/13 01:33:24;;;;;;;27.37;14.07;;;;;;;;;;5062176;28;20251;-79
2022/12/13 01:35:53;;;;;;;25.43;14.67;;;;;;;;;;5061823;28;20233;-79
2022/12/13 01:38:20;;;;;;;28.40;14.40;;;;;;;;;;5070241;28;20226;-79
2022/12/13 01:40:48;;;;;;;26.73;14.67;;;;;;;;;;5063374;28;20733;-80
2022/12/13 01:43:16;;;;;;;21.70;13.47;;;;;;;;;;5066344;28;20201;-79
2022/12/13 01:45:43;;;;;;;21.10;13.27;;;;;;;;;;5064066;28;20252;-79
2022/12/13 01:48:12;;;;;;;23.90;13.73;;;;;;;;;;5052059;28;20230;-79
2022/12/13 01:50:41;;;;;;;32.60;15.70;;;;;;;;;;5052240;28;20307;-79
2022/12/13 01:53:09;;;;;;;26.47;15.10;;;;;;;;;;5065043;28;20229;-79
2022/12/13 01:55:38;;;;;;;26.57;14.57;;;;;;;;;;5056982;28;20230;-79
2022/12/13 01:58:06;;;;;;;24.37;12.73;;;;;;;;;;5051666;28;20237;-79
2022/12/13 02:00:34;;;;;;;21.97;13.23;;;;;;;;;;5051637;28;20709;-80
2022/12/13 02:03:01;;;;;;;22.77;12.77;;;;;;;;;;5070331;28;20193;-79
2022/12/13 02:05:32;;;;;;;25.47;15.10;;;;;;;;;;5065279;28;20229;-81
2022/12/13 02:08:00;;;;;;;29.40;14.97;;;;;;;;;;5056535;28;20228;-79
2022/12/13 02:10:29;;;;;;;21.70;13.60;;;;;;;;;;5064604;28;20252;-80
2022/12/13 02:12:57;;;;;;;28.20;15.03;;;;;;;;;;5060562;28;20589;-79
2022/12/13 02:15:24;;;;;;;30.10;15.30;;;;;;;;;;5066565;28;20319;-80
2022/12/13 02:17:58;;;;;;;27.90;13.90;;;;;;;;;;5059107;28;20618;-80
2022/12/13 02:20:47;;;;;;;23.03;13.20;;;;;;;;;;5066367;28;20294;-80
2022/12/13 02:23:24;;;;;;;24.33;14.63;;;;;;;;;;5064958;28;20696;-79
2022/12/13 02:25:59;;;;;;;25.27;14.77;;;;;;;;;;5051576;28;20260;-80
2022/12/13 02:28:36;;;;;;;20.93;13.90;;;;;;;;;;5051110;28;20233;-80
2022/12/13 02:31:08;;;;;;;21.47;13.67;;;;;;;;;;5051312;28;20237;-80
2022/12/13 02:33:40;;;;;;;27.70;15.30;;;;;;;;;;5051843;28;20217;-80
2022/12/13 02:36:09;;;;;;;27.03;14.50;;;;;;;;;;5051223;28;20236;-80
2022/12/13 02:38:39;;;;;;;23.77;14.97;;;;;;;;;;5084981;22;20237;-81
2022/12/13 02:41:13;;;;;;;31.07;14.70;;;;;;;;;;5062306;28;20238;-80
2022/12/13 02:43:45;;;;;;;25.27;14.93;;;;;;;;;;5051999;28;20194;-80
2022/12/13 02:46:14;;;;;;;24.13;14.90;;;;;;;;;;5051301;28;20237;-80
2022/12/13 02:48:42;;;;;;;23.87;12.90;;;;;;;;;;5035927;28;20227;-80
2022/12/13 02:51:11;;;;;;;21.97;14.73;;;;;;;;;;5046871;28;20732;-81
2022/12/13 02:53:40;;;;;;;24.47;14.43;;;;;;;;;;5035558;28;20704;-80
2022/12/13 02:56:07;;;;;;;30.40;13.70;;;;;;;;;;5031110;28;20583;-81
2022/12/13 02:58:36;;;;;;;23.37;14.60;;;;;;;;;;5043248;28;20237;-80
2022/12/13 03:01:08;;;;;;;21.40;13.57;;;;;;;;;;5050370;28;20234;-80
2022/12/13 03:03:43;;;;;;;17.57;12.53;;;;;;;;;;5051689;28;20201;-80
2022/12/13 03:06:31;;;;;;;24.07;13.13;;;;;;;;;;5034468;28;20224;-81
2022/12/13 03:09:07;;;;;;;24.00;13.47;;;;;;;;;;5051681;28;20321;-81
2022/12/13 03:14:23;;;;;;;22.73;13.47;;;;;;;;;;5051472;28;20237;-81
2022/12/13 03:16:51;;;;;;;25.83;13.37;;;;;;;;;;5037552;28;20233;-81
2022/12/13 03:19:20;;;;;;;23.23;12.87;;;;;;;;;;5040099;28;20221;-81
2022/12/13 03:21:48;;;;;;;24.20;14.17;;;;;;;;;;5036224;28;20241;-81
2022/12/13 03:24:17;;;;;;;26.20;15.20;;;;;;;;;;5050283;28;20214;-81
2022/12/13 03:26:44;;;;;;;29.13;13.67;;;;;;;;;;5034776;28;20699;-81
2022/12/13 03:29:11;;;;;;;26.40;13.10;;;;;;;;;;5038037;28;20202;-81
2022/12/13 03:31:38;;;;;;;26.53;14.87;;;;;;;;;;5040371;28;20241;-82
2022/12/13 03:34:05;;;;;;;31.20;13.97;;;;;;;;;;5039266;28;20229;-81
2022/12/13 03:36:34;;;;;;;24.73;13.90;;;;;;;;;;5046555;28;20227;-82
2022/12/13 03:39:01;;;;;;;25.60;14.50;;;;;;;;;;5034821;28;20674;-81
2022/12/13 03:41:30;;;;;;;25.57;14.13;;;;;;;;;;5050438;28;20242;-81
2022/12/13 03:43:57;;;;;;;31.10;15.43;;;;;;;;;;5055467;28;20297;-81
2022/12/13 03:46:24;;;;;;;21.70;14.70;;;;;;;;;;5054291;28;20241;-81
2022/12/13 03:48:51;;;;;;;24.87;13.87;;;;;;;;;;5046269;28;20222;-81
2022/12/13 03:51:19;;;;;;;23.23;13.87;;;;;;;;;;5042299;28;20634;-81
2022/12/13 03:53:47;;;;;;;23.03;13.97;;;;;;;;;;5051349;28;20678;-81
2022/12/13 03:56:14;;;;;;;23.60;12.80;;;;;;;;;;5051528;28;20301;-81
2022/12/13 03:58:42;;;;;;;28.27;14.70;;;;;;;;;;5039851;28;20233;-80
2022/12/13 04:01:09;;;;;;;27.27;13.97;;;;;;;;;;5050733;28;20233;-81
2022/12/13 04:03:37;;;;;;;23.40;13.77;;;;;;;;;;5048723;28;20662;-81
2022/12/13 04:06:05;;;;;;;23.60;12.80;;;;;;;;;;5053715;28;20234;-81
2022/12/13 04:08:33;;;;;;;26.60;14.93;;;;;;;;;;5044817;28;20226;-81
2022/12/13 04:13:31;;;;;;;33.37;15.03;;;;;;;;;;5034116;28;20241;-81
2022/12/13 04:13:49;;;;;;;25.63;15.47;;;;;;;;;;5048915;28;20217;-81
2022/12/13 04:16:16;;;;;;;27.57;14.23;;;;;;;;;;5039401;28;20737;-81
2022/12/13 04:18:43;;;;;;;28.73;15.17;;;;;;;;;;5051642;28;20222;-81
2022/12/13 04:21:11;;;;;;;24.57;14.47;;;;;;;;;;5053901;28;20240;-81
2022/12/13 04:23:38;;;;;;;30.47;14.20;;;;;;;;;;5054381;28;20206;-81
2022/12/13 04:26:07;;;;;;;24.33;13.87;;;;;;;;;;5053596;28;20237;-82
2022/12/13 04:28:34;;;;;;;30.90;14.33;;;;;;;;;;5053364;28;20271;-81
2022/12/13 04:31:01;;;;;;;25.00;14.27;;;;;;;;;;5053848;28;20229;-80
2022/12/13 04:33:31;;;;;;;26.30;14.13;;;;;;;;;;5053831;28;20735;-81
2022/12/13 04:35:58;;;;;;;18.57;12.57;;;;;;;;;;5053323;28;20311;-81
2022/12/13 04:38:25;;;;;;;24.50;14.00;;;;;;;;;;5053280;28;20234;-81
2022/12/13 04:40:52;;;;;;;23.03;13.57;;;;;;;;;;5053405;28;20241;-81
2022/12/13 04:43:21;;;;;;;25.37;13.30;;;;;;;;;;5053811;28;20208;-81
2022/12/13 04:45:48;;;;;;;27.20;15.20;;;;;;;;;;5053603;28;20244;-81
2022/12/13 04:48:15;;;;;;;24.90;14.60;;;;;;;;;;5053767;28;20243;-81
2022/12/13 04:50:42;;;;;;;32.20;14.90;;;;;;;;;;5053195;28;20250;-80
2022/12/13 04:53:14;;;;;;;24.73;14.60;;;;;;;;;;5054722;28;20231;-81
2022/12/13 04:55:42;;;;;;;22.73;13.93;;;;;;;;;;5053388;28;20259;-80
2022/12/13 04:58:09;;;;;;;28.20;14.77;;;;;;;;;;5053123;28;20264;-81
2022/12/13 05:00:38;;;;;;;22.60;14.43;;;;;;;;;;5052777;28;20776;-81
2022/12/13 05:03:05;;;;;;;26.20;14.27;;;;;;;;;;5048446;28;20209;-81
2022/12/13 05:05:32;;;;;;;27.93;14.87;;;;;;;;;;5048144;28;20245;-81
2022/12/13 05:07:59;;;;;;;31.40;13.90;;;;;;;;;;5033264;28;20230;-81
2022/12/13 05:10:26;;;;;;;27.20;14.73;;;;;;;;;;5043950;28;20236;-81
2022/12/13 05:12:53;;;;;;;30.77;15.50;;;;;;;;;;5038691;28;20210;-81
2022/12/13 05:15:20;;;;;;;28.10;15.57;;;;;;;;;;5045919;28;20202;-79
2022/12/13 05:17:48;;;;;;;28.53;16.60;;;;;;;;;;5048688;28;20227;-80
2022/12/13 05:20:16;;;;;;;23.57;14.30;;;;;;;;;;5033251;28;20213;-79
2022/12/13 05:22:43;;;;;;;21.93;13.73;;;;;;;;;;5033285;28;20207;-80
2022/12/13 05:25:10;;;;;;;23.13;13.80;;;;;;;;;;5035890;28;20259;-80
2022/12/13 05:27:37;;;;;;;28.63;14.70;;;;;;;;;;5050007;28;20340;-80
2022/12/13 05:30:04;;;;;;;22.83;13.57;;;;;;;;;;5037656;28;20213;-80
2022/12/13 05:32:34;;;;;;;24.10;13.83;;;;;;;;;;5036948;28;20292;-80
2022/12/13 05:35:03;;;;;;;22.83;14.57;;;;;;;;;;5032421;28;20230;-80
2022/12/13 05:37:30;;;;;;;21.60;12.77;;;;;;;;;;5032736;28;20242;-80
2022/12/13 05:39:57;;;;;;;27.23;14.30;;;;;;;;;;5045530;28;20206;-80
2022/12/13 05:42:24;;;;;;;26.93;14.10;;;;;;;;;;5046573;28;20234;-80
2022/12/13 05:44:52;;;;;;;27.13;15.77;;;;;;;;;;5033114;28;20195;-80
2022/12/13 05:47:19;;;;;;;27.90;14.93;;;;;;;;;;5041448;28;20278;-80
2022/12/13 05:49:46;;;;;;;28.57;15.37;;;;;;;;;;5048005;28;20203;-80
2022/12/13 05:52:18;;;;;;;26.60;14.60;;;;;;;;;;5032225;28;20229;-80
2022/12/13 05:54:45;;;;;;;31.53;15.10;;;;;;;;;;5039092;28;20229;-80
2022/12/13 05:57:12;;;;;;;31.33;14.03;;;;;;;;;;5035829;28;20233;-80
2022/12/13 05:59:39;;;;;;;25.53;14.07;;;;;;;;;;5035701;28;20799;-80
2022/12/13 06:02:06;;;;;;;24.13;13.90;;;;;;;;;;5048308;28;20244;-80
2022/12/13 06:04:33;;;;;;;33.23;14.63;;;;;;;;;;5035244;28;20209;-81
2022/12/13 06:07:00;;;;;;;26.03;15.30;;;;;;;;;;5046879;28;20233;-80
2022/12/13 06:09:29;;;;;;;27.93;14.20;;;;;;;;;;5033884;28;20228;-80
2022/12/13 06:11:56;;;;;;;25.77;13.77;;;;;;;;;;5051722;28;20240;-79
2022/12/13 06:14:23;;;;;;;27.90;15.90;;;;;;;;;;5036113;28;20230;-79
2022/12/13 06:16:51;;;;;;;24.63;14.40;;;;;;;;;;5033176;28;20243;-79
2022/12/13 06:19:18;;;;;;;28.90;15.83;;;;;;;;;;5042798;28;20213;-79
2022/12/13 06:21:45;;;;;;;27.07;15.23;;;;;;;;;;5031785;28;20325;-79
2022/12/13 06:24:12;;;;;;;26.17;14.50;;;;;;;;;;5032373;28;20205;-79
2022/12/13 06:26:41;;;;;;;27.40;14.20;;;;;;;;;;5040011;28;20238;-79
2022/12/13 06:29:09;;;;;;;25.73;15.40;;;;;;;;;;5045951;28;20208;-79
2022/12/13 06:31:36;;;;;;;32.00;16.10;;;;;;;;;;5050423;28;20237;-79
2022/12/13 06:34:04;;;;;;;20.43;13.77;;;;;;;;;;5032353;28;20230;-79
2022/12/13 06:36:31;;;;;;;31.57;14.60;;;;;;;;;;5047859;28;20244;-79
2022/12/13 06:39:02;;;;;;;30.73;16.30;;;;;;;;;;5031657;28;20234;-79
2022/12/13 06:41:29;;;;;;;31.97;15.47;;;;;;;;;;5047966;28;20616;-79
2022/12/13 06:43:58;;;;;;;29.10;15.53;;;;;;;;;;5037247;28;20210;-79
2022/12/13 06:46:25;;;;;;;27.73;15.77;;;;;;;;;;5031312;28;20234;-79
2022/12/13 06:48:52;;;;;;;30.87;15.53;;;;;;;;;;5031237;28;20230;-79
2022/12/13 06:51:19;;;;;;;26.20;14.60;;;;;;;;;;5030905;28;20245;-80
2022/12/13 06:53:46;;;;;;;32.50;15.20;;;;;;;;;;5031538;28;20703;-80
2022/12/13 06:56:15;;;;;;;24.93;15.27;;;;;;;;;;5031515;28;20237;-80
2022/12/13 06:58:42;;;;;;;29.30;16.87;;;;;;;;;;5031643;28;20231;-80
2022/12/13 07:01:12;;;;;;;30.40;15.97;;;;;;;;;;5031773;28;20264;-80
2022/12/13 07:03:39;;;;;;;29.47;16.33;;;;;;;;;;5041163;28;20202;-79
2022/12/13 07:06:08;;;;;;;24.83;14.27;;;;;;;;;;5031102;28;20291;-78
2022/12/13 07:08:35;;;;;;;26.23;14.50;;;;;;;;;;5031330;28;20238;-79
2022/12/13 07:11:03;;;;;;;32.50;16.20;;;;;;;;;;5030795;28;20310;-79
2022/12/13 07:13:30;;;;;;;27.53;16.10;;;;;;;;;;5031563;28;20220;-78
2022/12/13 07:15:57;;;;;;;27.67;14.60;;;;;;;;;;5050108;28;20267;-80
2022/12/13 07:18:26;;;;;;;30.80;16.07;;;;;;;;;;5050082;28;20950;-79
2022/12/13 07:20:53;;;;;;;28.47;15.60;;;;;;;;;;5032670;28;20238;-79
2022/12/13 07:23:20;;;;;;;22.97;13.67;;;;;;;;;;5041881;28;20210;-79
2022/12/13 07:25:52;;;;;;;29.20;14.43;;;;;;;;;;5040045;28;20244;-79
2022/12/13 07:28:19;;;;;;;26.00;13.33;;;;;;;;;;5049946;28;20291;-79
2022/12/13 07:30:46;;;;;;;28.93;14.80;;;;;;;;;;5050739;28;20228;-80
2022/12/13 07:33:13;;;;;;;31.63;15.20;;;;;;;;;;5051656;28;20217;-79
2022/12/13 07:35:41;;;;;;;30.87;14.63;;;;;;;;;;5050906;28;20239;-79
2022/12/13 07:38:09;;;;;;;30.47;14.50;;;;;;;;;;5048522;28;20245;-80
2022/12/13 07:40:37;;;;;;;22.00;13.53;;;;;;;;;;5032484;28;20230;-79
2022/12/13 07:43:04;;;;;;;29.47;14.80;;;;;;;;;;5043938;28;20234;-79
2022/12/13 07:45:31;;;;;;;24.90;15.10;;;;;;;;;;5032351;28;20235;-80
2022/12/13 07:47:58;;;;;;;25.83;13.80;;;;;;;;;;5030960;28;20245;-80
2022/12/13 07:50:26;;;;;;;26.37;13.97;;;;;;;;;;5030513;28;20241;-79
2022/12/13 07:52:54;;;;;;;25.37;14.27;;;;;;;;;;5031407;28;20207;-79
2022/12/13 07:55:21;;;;;;;33.13;15.07;;;;;;;;;;5030582;28;20722;-80
2022/12/13 07:57:48;;;;;;;24.50;13.63;;;;;;;;;;5031056;28;20226;-80
2022/12/13 08:00:16;;;;;;;28.00;14.43;;;;;;;;;;5030820;28;20221;-80
2022/12/13 08:02:43;;;;;;;27.07;14.40;;;;;;;;;;5031585;28;20682;-80
2022/12/13 08:05:10;;;;;;;27.87;13.87;;;;;;;;;;5034456;28;20211;-80
2022/12/13 08:07:37;;;;;;;30.57;15.47;;;;;;;;;;5034762;28;20259;-80
2022/12/13 08:10:06;;;;;;;24.43;13.93;;;;;;;;;;5034010;28;20230;-81
2022/12/13 08:12:33;;;;;;;27.40;15.27;;;;;;;;;;5034549;28;20215;-79
2022/12/13 08:15:00;;;;;;;30.87;14.60;;;;;;;;;;5035017;28;20207;-79
2022/12/13 08:17:27;;;;;;;25.20;13.73;;;;;;;;;;5034289;28;20314;-80
2022/12/13 08:19:55;;;;;;;28.60;14.43;;;;;;;;;;5034312;28;20218;-79
2022/12/13 08:22:22;;;;;;;30.30;16.97;;;;;;;;;;5034047;28;20241;-79
2022/12/13 08:24:49;;;;;;;32.93;14.77;;;;;;;;;;5034165;28;20206;-79
2022/12/13 08:27:17;;;;;;;30.83;14.60;;;;;;;;;;5033330;28;20235;-79
2022/12/13 08:29:44;;;;;;;29.73;15.43;;;;;;;;;;5050480;28;20688;-79
2022/12/13 08:32:12;;;;;;;31.63;15.53;;;;;;;;;;5052174;28;20248;-79
2022/12/13 08:34:41;;;;;;;28.40;14.67;;;;;;;;;;5066266;28;20228;-79
2022/12/13 08:37:08;;;;;;;28.20;15.60;;;;;;;;;;5094375;22;20263;-77
2022/12/13 08:39:36;;;;;;;31.03;15.93;;;;;;;;;;5032885;28;20230;-77
2022/12/13 08:42:03;;;;;;;32.40;16.83;;;;;;;;;;5013901;28;20231;-76
2022/12/13 08:44:31;;;;;;;29.10;15.50;;;;;;;;;;5013968;28;20238;-76
2022/12/13 08:46:58;;;;;;;24.40;14.67;;;;;;;;;;5026696;28;20226;-76
2022/12/13 08:49:26;;;;;;;37.23;17.23;;;;;;;;;;5032571;28;20214;-76
2022/12/13 08:51:53;;;;;;;32.00;14.83;;;;;;;;;;5039864;28;20206;-76
2022/12/13 08:54:20;;;;;;;36.83;16.87;;;;;;;;;;5051973;28;20230;-76
2022/12/13 08:56:47;;;;;;;36.03;18.73;;;;;;;;;;5052277;28;20743;-76
2022/12/13 08:59:14;;;;;;;32.60;17.43;;;;;;;;;;5052307;28;20709;-76
2022/12/13 09:01:42;;;;;;;38.73;18.37;;;;;;;;;;5052405;28;20762;-76
2022/12/13 09:04:09;;;;;;;35.27;17.80;;;;;;;;;;5052695;28;20571;-76
2022/12/13 09:06:37;;;;;;;36.10;17.40;;;;;;;;;;5052556;28;20608;-76
2022/12/13 09:09:04;;;;;;;34.90;17.20;;;;;;;;;;5052414;28;20256;-76
2022/12/13 09:11:31;;;;;;;40.20;18.17;;;;;;;;;;5052284;28;20233;-76
2022/12/13 09:13:58;;;;;;;35.30;17.70;;;;;;;;;;5052540;28;20208;-76
2022/12/13 09:16:26;;;;;;;37.33;17.80;;;;;;;;;;5052194;28;20210;-76
2022/12/13 09:18:54;;;;;;;49.70;19.30;;;;;;;;;;5052064;28;20226;-77
2022/12/13 09:21:21;;;;;;;40.93;17.63;;;;;;;;;;5051799;28;20313;-76
2022/12/13 09:23:48;;;;;;;44.93;21.20;;;;;;;;;;5035387;28;20269;-76
2022/12/13 09:26:16;;;;;;;46.43;21.40;;;;;;;;;;5031935;28;20238;-76
2022/12/13 09:28:43;;;;;;;43.83;21.27;;;;;;;;;;5035869;28;20236;-76
2022/12/13 09:31:11;;;;;;;45.77;20.97;;;;;;;;;;5039023;28;20706;-76
2022/12/13 09:33:39;;;;;;;49.47;19.77;;;;;;;;;;5045008;28;20658;-76
2022/12/13 09:36:09;;;;;;;49.40;21.53;;;;;;;;;;5031690;28;20737;-76
2022/12/13 09:38:36;;;;;;;44.97;19.57;;;;;;;;;;5031757;28;20724;-77
2022/12/13 09:41:09;;;;;;;48.27;21.90;;;;;;;;;;5031686;28;20245;-76
2022/12/13 09:43:37;;;;;;;45.60;22.70;;;;;;;;;;5032061;28;20202;-76
2022/12/13 09:46:06;;;;;;;47.37;22.13;;;;;;;;;;5031599;28;20230;-77
2022/12/13 09:48:33;;;;;;;50.10;22.03;;;;;;;;;;5039669;28;20226;-76
2022/12/13 09:51:00;;;;;;;47.23;22.23;;;;;;;;;;5050122;28;20240;-75
2022/12/13 09:53:29;;;;;;;50.23;21.07;;;;;;;;;;5052577;28;20217;-77
2022/12/13 09:55:56;;;;;;;47.60;23.13;;;;;;;;;;5051690;28;20245;-77
2022/12/13 09:58:25;;;;;;;47.97;21.97;;;;;;;;;;5051643;28;20241;-78
2022/12/13 10:00:54;;;;;;;68.53;25.40;;;;;;;;;;5051352;28;20797;-78
2022/12/13 10:03:22;;;;;;;53.13;23.33;;;;;;;;;;5037864;28;20261;-77
2022/12/13 10:05:54;;;;;;;52.70;24.43;;;;;;;;;;5032365;28;20239;-78
2022/12/13 10:08:23;;;;;;;49.27;24.20;;;;;;;;;;5031373;28;20234;-79
2022/12/13 10:10:52;;;;;;;48.63;24.10;;;;;;;;;;5031328;28;20257;-80
2022/12/13 10:13:22;;;;;;;60.77;23.47;;;;;;;;;;5031687;28;20250;-78
2022/12/13 10:15:51;;;;;;;52.83;23.60;;;;;;;;;;5031381;28;20234;-78
2022/12/13 10:18:21;;;;;;;52.33;26.87;;;;;;;;;;5031151;28;20234;-77
2022/12/13 10:20:50;;;;;;;58.10;24.97;;;;;;;;;;5031322;28;20241;-78
2022/12/13 10:23:17;;;;;;;63.53;26.00;;;;;;;;;;5031294;28;20261;-77
2022/12/13 10:25:45;;;;;;;58.80;25.03;;;;;;;;;;5030857;28;20234;-76
2022/12/13 10:28:14;;;;;;;56.40;23.87;;;;;;;;;;5031299;28;20230;-79
2022/12/13 10:30:42;;;;;;;50.33;23.50;;;;;;;;;;5031452;28;20241;-76
2022/12/13 10:33:20;;;;;;;49.47;21.13;;;;;;;;;;5031338;28;20207;-77
2022/12/13 10:36:01;;;;;;;59.77;24.00;;;;;;;;;;5030801;28;20234;-77
2022/12/13 10:38:30;;;;;;;53.97;23.53;;;;;;;;;;5011363;28;20718;-77
2022/12/13 10:40:57;;;;;;;61.90;24.20;;;;;;;;;;5010912;28;20753;-78
2022/12/13 10:43:26;;;;;;;43.60;20.57;;;;;;;;;;5011439;28;20243;-78
2022/12/13 10:46:00;;;;;;;52.50;20.70;;;;;;;;;;5010879;28;20235;-77
2022/12/13 10:48:31;;;;;;;33.50;17.77;;;;;;;;;;5011381;28;20230;-78
2022/12/13 10:51:00;;;;;;;44.57;21.57;;;;;;;;;;5011073;28;20589;-77
2022/12/13 10:53:30;;;;;;;59.87;26.93;;;;;;;;;;5011340;28;20212;-78
2022/12/13 10:55:57;;;;;;;55.37;24.13;;;;;;;;;;5010825;28;20243;-78
2022/12/13 10:58:34;;;;;;;70.73;27.47;;;;;;;;;;5037738;28;20222;-78
2022/12/13 11:01:09;;;;;;;54.17;23.33;;;;;;;;;;5049138;28;20233;-78
2022/12/13 11:03:36;;;;;;;48.60;23.60;;;;;;;;;;5047939;28;20212;-77
2022/12/13 11:06:04;;;;;;;54.53;24.63;;;;;;;;;;5039637;28;20614;-78
2022/12/13 11:08:32;;;;;;;47.57;22.83;;;;;;;;;;5030744;28;20227;-77
2022/12/13 11:11:00;;;;;;;60.57;24.97;;;;;;;;;;5029553;28;20235;-78
2022/12/13 11:13:33;;;;;;;48.80;22.50;;;;;;;;;;5029918;28;20203;-78
2022/12/13 11:16:01;;;;;;;55.23;24.13;;;;;;;;;;5048976;28;20334;-78
2022/12/13 11:18:37;;;;;;;57.57;25.60;;;;;;;;;;5050745;28;20240;-78
2022/12/13 11:21:06;;;;;;;49.13;23.33;;;;;;;;;;5050243;28;20238;-78
2022/12/13 11:23:35;;;;;;;49.53;21.97;;;;;;;;;;5050978;28;20210;-78
2022/12/13 11:26:06;;;;;;;61.07;23.63;;;;;;;;;;5050092;28;20234;-78
2022/12/13 11:28:42;;;;;;;30.40;16.53;;;;;;;;;;5050413;28;20231;-78
2022/12/13 11:31:15;;;;;;;53.40;20.83;;;;;;;;;;5050300;28;20238;-78
2022/12/13 11:33:47;;;;;;;47.20;19.93;;;;;;;;;;5050907;28;20207;-78
2022/12/13 11:36:21;;;;;;;42.63;21.50;;;;;;;;;;5050148;28;20235;-78
2022/12/13 11:38:54;;;;;;;39.73;18.57;;;;;;;;;;5052430;28;20242;-77
2022/12/13 11:41:24;;;;;;;44.33;19.10;;;;;;;;;;5054140;28;20250;-78
2022/12/13 11:43:56;;;;;;;52.83;21.10;;;;;;;;;;5054400;28;20219;-78
2022/12/13 11:46:27;;;;;;;44.77;20.63;;;;;;;;;;5053794;28;20239;-78
2022/12/13 11:48:57;;;;;;;44.90;20.60;;;;;;;;;;5046681;28;20573;-78
2022/12/13 11:51:26;;;;;;;41.37;19.90;;;;;;;;;;5045412;28;20235;-78
2022/12/13 11:53:57;;;;;;;36.97;17.80;;;;;;;;;;5034983;28;20213;-78
2022/12/13 11:56:26;;;;;;;36.40;17.70;;;;;;;;;;5032995;28;20237;-78
2022/12/13 11:58:59;;;;;;;35.57;18.83;;;;;;;;;;5032561;28;20238;-77
2022/12/13 12:01:30;;;;;;;34.50;18.13;;;;;;;;;;5032510;28;20235;-78
2022/12/13 12:04:01;;;;;;;34.23;18.07;;;;;;;;;;5033567;28;20213;-78
2022/12/13 12:06:33;;;;;;;30.50;15.93;;;;;;;;;;5033378;28;20245;-78
2022/12/13 12:09:01;;;;;;;28.83;16.37;;;;;;;;;;5033595;28;20720;-78
2022/12/13 12:11:30;;;;;;;30.13;17.00;;;;;;;;;;5033680;28;20244;-78
2022/12/13 12:14:01;;;;;;;33.83;16.43;;;;;;;;;;5033667;28;20207;-78
2022/12/13 12:16:32;;;;;;;31.90;16.27;;;;;;;;;;5033505;28;20237;-78
2022/12/13 12:19:00;;;;;;;29.10;15.80;;;;;;;;;;5033622;28;20261;-78
2022/12/13 12:21:34;;;;;;;25.30;16.03;;;;;;;;;;5033549;28;20257;-78
2022/12/13 12:24:05;;;;;;;26.93;15.47;;;;;;;;;;5033830;28;20206;-78
2022/12/13 12:26:36;;;;;;;26.27;14.23;;;;;;;;;;5033558;28;20243;-78
2022/12/13 12:29:16;;;;;;;23.73;12.73;;;;;;;;;;5033386;28;20241;-78
2022/12/13 12:31:45;;;;;;;24.73;14.13;;;;;;;;;;5033279;28;20240;-78
2022/12/13 12:34:17;;;;;;;18.30;12.20;;;;;;;;;;5033523;28;20796;-77
2022/12/13 12:36:50;;;;;;;20.37;12.30;;;;;;;;;;5033049;28;20249;-78
2022/12/13 12:39:27;;;;;;;17.33;10.43;;;;;;;;;;5033179;28;20258;-78
2022/12/13 12:42:03;;;;;;;18.93;12.10;;;;;;;;;;5033152;28;20233;-78
2022/12/13 12:44:37;;;;;;;16.43;11.30;;;;;;;;;;5033513;28;20693;-78
2022/12/13 12:47:15;;;;;;;16.07;10.53;;;;;;;;;;5032828;28;20233;-78
2022/12/13 12:50:04;;;;;;;16.70;11.07;;;;;;;;;;5033034;28;20197;-78
2022/12/13 12:52:36;;;;;;;15.00;9.00;;;;;;;;;;5033381;28;20249;-78
2022/12/13 12:55:08;;;;;;;15.80;10.57;;;;;;;;;;5032814;28;20209;-78
2022/12/13 12:57:40;;;;;;;18.60;11.57;;;;;;;;;;5033385;28;20250;-78
2022/12/13 13:00:14;;;;;;;16.83;12.07;;;;;;;;;;5032828;28;20287;-78
2022/12/13 13:02:45;;;;;;;15.33;10.03;;;;;;;;;;5023924;28;20623;-78
2022/12/13 13:05:16;;;;;;;17.33;11.10;;;;;;;;;;5012655;28;20210;-78
2022/12/13 13:07:45;;;;;;;13.23;9.97;;;;;;;;;;5013272;28;20231;-78
2022/12/13 13:10:13;;;;;;;14.90;10.20;;;;;;;;;;5012745;28;20208;-78
2022/12/13 13:12:41;;;;;;;17.33;10.63;;;;;;;;;;5013322;28;20211;-78
2022/12/13 13:15:26;;;;;;;11.70;8.57;;;;;;;;;;5012563;28;20492;-78
2022/12/13 13:17:54;;;;;;;15.27;10.13;;;;;;;;;;5012706;28;20739;-78
2022/12/13 13:20:24;;;;;;;15.73;10.43;;;;;;;;;;5012377;28;20583;-78
2022/12/13 13:22:52;;;;;;;12.67;9.37;;;;;;;;;;5013000;28;20215;-78
2022/12/13 13:25:30;;;;;;;14.70;9.93;;;;;;;;;;5012438;28;20243;-78
2022/12/13 13:28:02;;;;;;;17.63;10.40;;;;;;;;;;5016954;28;20226;-78
2022/12/13 13:30:30;;;;;;;14.83;10.03;;;;;;;;;;5025740;28;20226;-79
2022/12/13 13:32:59;;;;;;;17.67;9.83;;;;;;;;;;5032261;28;20206;-78
2022/12/13 13:35:52;;;;;;;16.13;9.93;;;;;;;;;;5031687;28;20238;-78
2022/12/13 13:38:49;;;;;;;12.60;9.90;;;;;;;;;;5026394;28;20583;-78
2022/12/13 13:41:34;;;;;;;12.67;9.20;;;;;;;;;;5030194;28;20272;-78
2022/12/13 13:44:01;;;;;;;13.97;9.10;;;;;;;;;;5032176;28;20217;-78
2022/12/13 13:46:29;;;;;;;11.83;9.47;;;;;;;;;;5028485;28;20214;-78
2022/12/13 13:49:00;;;;;;;13.20;9.40;;;;;;;;;;5029391;28;20223;-78
2022/12/13 13:52:00;;;;;;;15.97;10.03;;;;;;;;;;5031335;28;20234;-78
2022/12/13 13:54:42;;;;;;;13.07;8.87;;;;;;;;;;4951598;29;20697;-78
2022/12/13 13:57:27;;;;;;;17.70;9.13;;;;;;;;;;4939245;28;20392;-78
2022/12/13 14:00:08;;;;;;;15.20;9.97;;;;;;;;;;5005482;28;20301;-78
2022/12/13 14:03:00;;;;;;;14.37;9.03;;;;;;;;;;5031103;28;20222;-78
2022/12/13 14:05:39;;;;;;;12.57;9.60;;;;;;;;;;5031343;28;20230;-79
2022/12/13 14:08:18;;;;;;;14.17;9.47;;;;;;;;;;5031688;28;20226;-79
2022/12/13 14:10:50;;;;;;;16.57;9.93;;;;;;;;;;5031340;28;20234;-79
2022/12/13 14:13:37;;;;;;;15.17;9.53;;;;;;;;;;5031894;28;20229;-79
2022/12/13 14:16:34;;;;;;;13.60;9.30;;;;;;;;;;5031080;28;20260;-79
2022/12/13 14:19:19;;;;;;;18.47;10.60;;;;;;;;;;5031387;28;20227;-79
2022/12/13 14:21:54;;;;;;;17.07;10.30;;;;;;;;;;5031059;28;20816;-78
2022/12/13 14:24:26;;;;;;;15.67;9.30;;;;;;;;;;5031574;28;20206;-78
2022/12/13 14:27:03;;;;;;;13.20;8.77;;;;;;;;;;5031088;28;20242;-79
2022/12/13 14:29:32;;;;;;;13.67;9.90;;;;;;;;;;5031661;28;20224;-78
2022/12/13 14:31:59;;;;;;;17.10;8.87;;;;;;;;;;5030578;28;20238;-78
2022/12/13 14:34:27;;;;;;;19.73;9.93;;;;;;;;;;5031214;28;20210;-78
2022/12/13 14:36:56;;;;;;;12.70;9.33;;;;;;;;;;5030311;28;20227;-78